sensor_id;sensor_type;location;lat;lon;timestamp;pressure;altitude;pressure_sealevel;temperature
76901;BMP280;65859;43.020;25.096;2024-01-16T00:01:57;97649.06;;;3.13
76901;BMP280;65859;43.020;25.096;2024-01-16T00:04:41;97654.75;;;3.06
76901;BMP280;65859;43.020;25.096;2024-01-16T00:07:27;97648.69;;;2.97
76901;BMP280;65859;43.020;25.096;2024-01-16T00:10:12;97645.34;;;3.14
76901;BMP280;65859;43.020;25.096;2024-01-16T00:12:57;97653.66;;;3.16
76901;BMP280;65859;43.020;25.096;2024-01-16T00:15:42;97653.22;;;3.23
76901;BMP280;65859;43.020;25.096;2024-01-16T00:18:27;97649.78;;;3.05
76901;BMP280;65859;43.020;25.096;2024-01-16T00:21:14;97649.66;;;3.18
76901;BMP280;65859;43.020;25.096;2024-01-16T00:23:59;97663.69;;;3.14
76901;BMP280;65859;43.020;25.096;2024-01-16T00:26:44;97667.22;;;3.27
76901;BMP280;65859;43.020;25.096;2024-01-16T00:29:29;97666.16;;;3.28
76901;BMP280;65859;43.020;25.096;2024-01-16T00:32:15;97676.13;;;3.00
76901;BMP280;65859;43.020;25.096;2024-01-16T00:35:00;97668.41;;;2.86
76901;BMP280;65859;43.020;25.096;2024-01-16T00:37:46;97666.84;;;2.76
76901;BMP280;65859;43.020;25.096;2024-01-16T00:40:30;97664.28;;;3.02
76901;BMP280;65859;43.020;25.096;2024-01-16T00:43:15;97655.19;;;3.00
76901;BMP280;65859;43.020;25.096;2024-01-16T00:45:59;97662.56;;;2.89
76901;BMP280;65859;43.020;25.096;2024-01-16T00:48:44;97652.63;;;2.60
76901;BMP280;65859;43.020;25.096;2024-01-16T00:51:31;97660.63;;;2.55
76901;BMP280;65859;43.020;25.096;2024-01-16T00:54:15;97665.69;;;2.51
76901;BMP280;65859;43.020;25.096;2024-01-16T00:56:59;97658.84;;;2.81
76901;BMP280;65859;43.020;25.096;2024-01-16T00:59:44;97665.97;;;2.89
76901;BMP280;65859;43.020;25.096;2024-01-16T01:02:29;97674.56;;;2.81
76901;BMP280;65859;43.020;25.096;2024-01-16T01:05:14;97680.53;;;2.64
76901;BMP280;65859;43.020;25.096;2024-01-16T01:07:59;97683.16;;;2.73
76901;BMP280;65859;43.020;25.096;2024-01-16T01:10:44;97677.00;;;2.69
76901;BMP280;65859;43.020;25.096;2024-01-16T01:13:29;97678.97;;;2.72
76901;BMP280;65859;43.020;25.096;2024-01-16T01:16:14;97682.91;;;3.01
76901;BMP280;65859;43.020;25.096;2024-01-16T01:18:58;97676.59;;;3.02
76901;BMP280;65859;43.020;25.096;2024-01-16T01:21:45;97671.38;;;2.93
76901;BMP280;65859;43.020;25.096;2024-01-16T01:24:29;97671.63;;;2.83
76901;BMP280;65859;43.020;25.096;2024-01-16T01:27:14;97677.19;;;2.81
76901;BMP280;65859;43.020;25.096;2024-01-16T01:29:58;97679.59;;;2.69
76901;BMP280;65859;43.020;25.096;2024-01-16T01:32:43;97693.25;;;2.57
76901;BMP280;65859;43.020;25.096;2024-01-16T01:35:28;97692.72;;;2.38
76901;BMP280;65859;43.020;25.096;2024-01-16T01:38:13;97705.13;;;2.55
76901;BMP280;65859;43.020;25.096;2024-01-16T01:40:57;97711.06;;;2.46
76901;BMP280;65859;43.020;25.096;2024-01-16T01:43:42;97715.16;;;2.61
76901;BMP280;65859;43.020;25.096;2024-01-16T01:46:27;97679.59;;;2.60
76901;BMP280;65859;43.020;25.096;2024-01-16T01:49:13;97703.22;;;2.86
76901;BMP280;65859;43.020;25.096;2024-01-16T01:52:01;97715.25;;;2.87
76901;BMP280;65859;43.020;25.096;2024-01-16T01:54:46;97709.28;;;2.95
76901;BMP280;65859;43.020;25.096;2024-01-16T01:57:32;97707.94;;;2.76
76901;BMP280;65859;43.020;25.096;2024-01-16T02:00:18;97716.47;;;2.50
76901;BMP280;65859;43.020;25.096;2024-01-16T02:03:03;97723.44;;;2.55
76901;BMP280;65859;43.020;25.096;2024-01-16T02:05:49;97723.47;;;2.72
76901;BMP280;65859;43.020;25.096;2024-01-16T02:08:34;97734.28;;;2.70
76901;BMP280;65859;43.020;25.096;2024-01-16T02:11:18;97747.94;;;2.59
76901;BMP280;65859;43.020;25.096;2024-01-16T02:14:03;97740.50;;;2.52
76901;BMP280;65859;43.020;25.096;2024-01-16T02:16:48;97756.28;;;2.69
76901;BMP280;65859;43.020;25.096;2024-01-16T02:19:33;97760.53;;;2.88
76901;BMP280;65859;43.020;25.096;2024-01-16T02:22:21;97750.25;;;2.91
76901;BMP280;65859;43.020;25.096;2024-01-16T02:25:08;97790.13;;;2.97
76901;BMP280;65859;43.020;25.096;2024-01-16T02:27:53;97795.41;;;3.06
76901;BMP280;65859;43.020;25.096;2024-01-16T02:30:38;97813.69;;;2.97
76901;BMP280;65859;43.020;25.096;2024-01-16T02:33:23;97805.84;;;2.97
76901;BMP280;65859;43.020;25.096;2024-01-16T02:36:08;97828.50;;;2.93
76901;BMP280;65859;43.020;25.096;2024-01-16T02:38:53;97836.25;;;3.07
76901;BMP280;65859;43.020;25.096;2024-01-16T02:41:37;97837.66;;;3.13
76901;BMP280;65859;43.020;25.096;2024-01-16T02:44:22;97858.56;;;2.95
76901;BMP280;65859;43.020;25.096;2024-01-16T02:47:06;97869.44;;;2.97
76901;BMP280;65859;43.020;25.096;2024-01-16T02:49:52;97876.53;;;2.97
76901;BMP280;65859;43.020;25.096;2024-01-16T02:52:38;97883.16;;;2.72
76901;BMP280;65859;43.020;25.096;2024-01-16T02:55:23;97897.75;;;2.87
76901;BMP280;65859;43.020;25.096;2024-01-16T02:58:08;97904.03;;;2.77
76901;BMP280;65859;43.020;25.096;2024-01-16T03:00:53;97933.94;;;3.07
76901;BMP280;65859;43.020;25.096;2024-01-16T03:03:37;97945.06;;;3.84
76901;BMP280;65859;43.020;25.096;2024-01-16T03:06:23;97971.22;;;4.67
76901;BMP280;65859;43.020;25.096;2024-01-16T03:09:09;97984.03;;;4.77
76901;BMP280;65859;43.020;25.096;2024-01-16T03:11:53;97995.03;;;4.62
76901;BMP280;65859;43.020;25.096;2024-01-16T03:14:38;98000.75;;;4.46
76901;BMP280;65859;43.020;25.096;2024-01-16T03:17:24;98030.69;;;4.37
76901;BMP280;65859;43.020;25.096;2024-01-16T03:20:09;98039.66;;;4.36
76901;BMP280;65859;43.020;25.096;2024-01-16T03:22:55;98056.59;;;4.21
76901;BMP280;65859;43.020;25.096;2024-01-16T03:25:40;98085.31;;;4.17
76901;BMP280;65859;43.020;25.096;2024-01-16T03:28:24;98097.81;;;4.20
76901;BMP280;65859;43.020;25.096;2024-01-16T03:31:09;98110.00;;;4.16
76901;BMP280;65859;43.020;25.096;2024-01-16T03:33:54;98116.75;;;4.09
76901;BMP280;65859;43.020;25.096;2024-01-16T03:36:39;98127.19;;;4.00
76901;BMP280;65859;43.020;25.096;2024-01-16T03:39:23;98138.38;;;3.83
76901;BMP280;65859;43.020;25.096;2024-01-16T03:42:08;98156.25;;;3.81
76901;BMP280;65859;43.020;25.096;2024-01-16T03:44:53;98166.41;;;3.74
76901;BMP280;65859;43.020;25.096;2024-01-16T03:47:37;98178.69;;;3.65
76901;BMP280;65859;43.020;25.096;2024-01-16T03:50:22;98179.75;;;3.64
76901;BMP280;65859;43.020;25.096;2024-01-16T03:53:08;98183.94;;;3.65
76901;BMP280;65859;43.020;25.096;2024-01-16T03:55:53;98190.41;;;3.67
76901;BMP280;65859;43.020;25.096;2024-01-16T03:58:39;98198.22;;;3.59
76901;BMP280;65859;43.020;25.096;2024-01-16T04:01:32;98214.06;;;3.54
76901;BMP280;65859;43.020;25.096;2024-01-16T04:04:17;98210.25;;;3.60
76901;BMP280;65859;43.020;25.096;2024-01-16T04:07:01;98197.06;;;3.51
76901;BMP280;65859;43.020;25.096;2024-01-16T04:09:47;98218.66;;;3.70
76901;BMP280;65859;43.020;25.096;2024-01-16T04:12:31;98224.31;;;3.64
76901;BMP280;65859;43.020;25.096;2024-01-16T04:15:16;98228.69;;;3.68
76901;BMP280;65859;43.020;25.096;2024-01-16T04:18:01;98233.06;;;3.73
76901;BMP280;65859;43.020;25.096;2024-01-16T04:20:46;98239.19;;;3.68
76901;BMP280;65859;43.020;25.096;2024-01-16T04:23:32;98228.81;;;3.86
76901;BMP280;65859;43.020;25.096;2024-01-16T04:26:17;98247.34;;;3.89
76901;BMP280;65859;43.020;25.096;2024-01-16T04:29:03;98269.34;;;4.16
76901;BMP280;65859;43.020;25.096;2024-01-16T04:31:48;98274.69;;;4.11
76901;BMP280;65859;43.020;25.096;2024-01-16T04:34:33;98277.97;;;4.16
76901;BMP280;65859;43.020;25.096;2024-01-16T04:37:18;98300.91;;;4.11
76901;BMP280;65859;43.020;25.096;2024-01-16T04:40:04;98298.50;;;4.23
76901;BMP280;65859;43.020;25.096;2024-01-16T04:42:50;98310.66;;;4.10
76901;BMP280;65859;43.020;25.096;2024-01-16T04:45:34;98314.69;;;3.94
76901;BMP280;65859;43.020;25.096;2024-01-16T04:48:19;98327.44;;;3.87
76901;BMP280;65859;43.020;25.096;2024-01-16T04:51:03;98334.50;;;3.86
76901;BMP280;65859;43.020;25.096;2024-01-16T04:53:49;98329.25;;;3.86
76901;BMP280;65859;43.020;25.096;2024-01-16T04:56:34;98349.59;;;3.94
76901;BMP280;65859;43.020;25.096;2024-01-16T04:59:19;98340.31;;;3.97
76901;BMP280;65859;43.020;25.096;2024-01-16T05:02:04;98353.59;;;4.01
76901;BMP280;65859;43.020;25.096;2024-01-16T05:04:49;98348.81;;;3.94
76901;BMP280;65859;43.020;25.096;2024-01-16T05:07:36;98350.00;;;4.10
76901;BMP280;65859;43.020;25.096;2024-01-16T05:10:21;98371.31;;;4.09
76901;BMP280;65859;43.020;25.096;2024-01-16T05:13:05;98386.25;;;4.08
76901;BMP280;65859;43.020;25.096;2024-01-16T05:15:50;98386.44;;;4.12
76901;BMP280;65859;43.020;25.096;2024-01-16T05:18:35;98392.69;;;4.16
76901;BMP280;65859;43.020;25.096;2024-01-16T05:21:20;98409.00;;;4.13
76901;BMP280;65859;43.020;25.096;2024-01-16T05:24:07;98411.31;;;4.28
76901;BMP280;65859;43.020;25.096;2024-01-16T05:26:52;98418.47;;;4.22
76901;BMP280;65859;43.020;25.096;2024-01-16T05:29:36;98412.88;;;4.15
76901;BMP280;65859;43.020;25.096;2024-01-16T05:32:22;98426.38;;;4.22
76901;BMP280;65859;43.020;25.096;2024-01-16T05:35:07;98443.38;;;4.25
76901;BMP280;65859;43.020;25.096;2024-01-16T05:37:52;98450.38;;;4.30
76901;BMP280;65859;43.020;25.096;2024-01-16T05:40:36;98450.69;;;4.28
76901;BMP280;65859;43.020;25.096;2024-01-16T05:43:21;98453.88;;;4.25
76901;BMP280;65859;43.020;25.096;2024-01-16T05:46:06;98469.53;;;4.30
76901;BMP280;65859;43.020;25.096;2024-01-16T05:48:51;98468.47;;;4.31
76901;BMP280;65859;43.020;25.096;2024-01-16T05:51:35;98475.25;;;4.46
76901;BMP280;65859;43.020;25.096;2024-01-16T05:54:22;98479.41;;;4.47
76901;BMP280;65859;43.020;25.096;2024-01-16T05:57:07;98479.22;;;4.43
76901;BMP280;65859;43.020;25.096;2024-01-16T05:59:51;98490.50;;;4.44
76901;BMP280;65859;43.020;25.096;2024-01-16T06:02:36;98492.84;;;4.45
76901;BMP280;65859;43.020;25.096;2024-01-16T06:05:21;98499.34;;;4.48
76901;BMP280;65859;43.020;25.096;2024-01-16T06:08:06;98507.75;;;4.36
76901;BMP280;65859;43.020;25.096;2024-01-16T06:10:51;98508.53;;;4.37
76901;BMP280;65859;43.020;25.096;2024-01-16T06:13:36;98506.56;;;4.42
76901;BMP280;65859;43.020;25.096;2024-01-16T06:16:21;98506.94;;;4.50
76901;BMP280;65859;43.020;25.096;2024-01-16T06:19:05;98516.38;;;4.51
76901;BMP280;65859;43.020;25.096;2024-01-16T06:21:50;98532.19;;;4.59
76901;BMP280;65859;43.020;25.096;2024-01-16T06:24:36;98523.16;;;4.65
76901;BMP280;65859;43.020;25.096;2024-01-16T06:27:21;98536.50;;;4.78
76901;BMP280;65859;43.020;25.096;2024-01-16T06:30:06;98563.75;;;5.18
76901;BMP280;65859;43.020;25.096;2024-01-16T06:32:53;98563.94;;;5.44
76901;BMP280;65859;43.020;25.096;2024-01-16T06:35:38;98571.34;;;5.73
76901;BMP280;65859;43.020;25.096;2024-01-16T06:38:22;98590.22;;;5.97
76901;BMP280;65859;43.020;25.096;2024-01-16T06:41:07;98594.59;;;5.80
76901;BMP280;65859;43.020;25.096;2024-01-16T06:43:52;98592.34;;;5.56
76901;BMP280;65859;43.020;25.096;2024-01-16T06:46:37;98605.41;;;5.24
76901;BMP280;65859;43.020;25.096;2024-01-16T06:49:22;98604.16;;;5.22
76901;BMP280;65859;43.020;25.096;2024-01-16T06:52:10;98601.44;;;5.13
76901;BMP280;65859;43.020;25.096;2024-01-16T06:54:56;98600.38;;;5.14
76901;BMP280;65859;43.020;25.096;2024-01-16T06:57:41;98608.88;;;5.11
76901;BMP280;65859;43.020;25.096;2024-01-16T07:00:26;98614.53;;;5.05
76901;BMP280;65859;43.020;25.096;2024-01-16T07:03:11;98622.50;;;4.99
76901;BMP280;65859;43.020;25.096;2024-01-16T07:05:56;98623.97;;;5.06
76901;BMP280;65859;43.020;25.096;2024-01-16T07:08:41;98644.44;;;5.09
76901;BMP280;65859;43.020;25.096;2024-01-16T07:11:25;98649.00;;;5.03
76901;BMP280;65859;43.020;25.096;2024-01-16T07:14:11;98660.97;;;5.09
76901;BMP280;65859;43.020;25.096;2024-01-16T07:16:56;98666.03;;;5.06
76901;BMP280;65859;43.020;25.096;2024-01-16T07:19:41;98670.31;;;5.02
76901;BMP280;65859;43.020;25.096;2024-01-16T07:22:26;98685.53;;;5.05
76901;BMP280;65859;43.020;25.096;2024-01-16T07:25:13;98680.72;;;5.07
76901;BMP280;65859;43.020;25.096;2024-01-16T07:27:58;98693.28;;;5.10
76901;BMP280;65859;43.020;25.096;2024-01-16T07:30:42;98696.81;;;5.05
76901;BMP280;65859;43.020;25.096;2024-01-16T07:33:27;98700.69;;;5.08
76901;BMP280;65859;43.020;25.096;2024-01-16T07:36:12;98710.16;;;5.09
76901;BMP280;65859;43.020;25.096;2024-01-16T07:38:56;98719.28;;;5.11
76901;BMP280;65859;43.020;25.096;2024-01-16T07:41:42;98735.38;;;5.10
76901;BMP280;65859;43.020;25.096;2024-01-16T07:44:30;98730.09;;;5.10
76901;BMP280;65859;43.020;25.096;2024-01-16T07:47:15;98731.25;;;5.04
76901;BMP280;65859;43.020;25.096;2024-01-16T07:50:00;98696.41;;;4.84
76901;BMP280;65859;43.020;25.096;2024-01-16T07:52:45;98757.75;;;5.07
76901;BMP280;65859;43.020;25.096;2024-01-16T07:55:31;98764.84;;;5.20
76901;BMP280;65859;43.020;25.096;2024-01-16T07:58:16;98785.69;;;5.17
76901;BMP280;65859;43.020;25.096;2024-01-16T08:01:01;98781.91;;;5.23
76901;BMP280;65859;43.020;25.096;2024-01-16T08:03:47;98791.34;;;5.24
76901;BMP280;65859;43.020;25.096;2024-01-16T08:06:32;98809.44;;;5.26
76901;BMP280;65859;43.020;25.096;2024-01-16T08:09:16;98810.53;;;5.38
76901;BMP280;65859;43.020;25.096;2024-01-16T08:12:02;98808.94;;;5.51
76901;BMP280;65859;43.020;25.096;2024-01-16T08:14:47;98813.22;;;5.61
76901;BMP280;65859;43.020;25.096;2024-01-16T08:17:32;98819.09;;;5.44
76901;BMP280;65859;43.020;25.096;2024-01-16T08:20:16;98815.19;;;5.41
76901;BMP280;65859;43.020;25.096;2024-01-16T08:23:01;98835.03;;;5.47
76901;BMP280;65859;43.020;25.096;2024-01-16T08:25:47;98842.50;;;5.45
76901;BMP280;65859;43.020;25.096;2024-01-16T08:28:32;98846.66;;;5.60
76901;BMP280;65859;43.020;25.096;2024-01-16T08:31:17;98853.53;;;5.70
76901;BMP280;65859;43.020;25.096;2024-01-16T08:34:05;98878.03;;;5.57
76901;BMP280;65859;43.020;25.096;2024-01-16T08:36:50;98884.44;;;5.50
76901;BMP280;65859;43.020;25.096;2024-01-16T08:39:36;98885.44;;;5.55
76901;BMP280;65859;43.020;25.096;2024-01-16T08:42:20;98898.94;;;5.62
76901;BMP280;65859;43.020;25.096;2024-01-16T08:45:05;98902.16;;;5.86
76901;BMP280;65859;43.020;25.096;2024-01-16T08:47:50;98911.72;;;6.32
76901;BMP280;65859;43.020;25.096;2024-01-16T08:50:35;98910.34;;;9.18
76901;BMP280;65859;43.020;25.096;2024-01-16T08:53:21;98900.78;;;8.15
76901;BMP280;65859;43.020;25.096;2024-01-16T08:56:09;98920.81;;;7.81
76901;BMP280;65859;43.020;25.096;2024-01-16T08:58:54;98942.81;;;8.98
76901;BMP280;65859;43.020;25.096;2024-01-16T09:01:39;98938.88;;;9.72
76901;BMP280;65859;43.020;25.096;2024-01-16T09:04:26;98962.41;;;10.69
76901;BMP280;65859;43.020;25.096;2024-01-16T09:07:11;98965.84;;;11.92
76901;BMP280;65859;43.020;25.096;2024-01-16T09:10:00;98961.19;;;11.37
76901;BMP280;65859;43.020;25.096;2024-01-16T09:12:44;98968.22;;;11.45
76901;BMP280;65859;43.020;25.096;2024-01-16T09:15:29;98979.88;;;10.37
76901;BMP280;65859;43.020;25.096;2024-01-16T09:18:13;98960.16;;;10.26
76901;BMP280;65859;43.020;25.096;2024-01-16T09:20:58;98968.44;;;11.03
76901;BMP280;65859;43.020;25.096;2024-01-16T09:23:43;98947.53;;;11.90
76901;BMP280;65859;43.020;25.096;2024-01-16T09:26:30;98955.78;;;11.85
76901;BMP280;65859;43.020;25.096;2024-01-16T09:29:16;98950.09;;;10.52
76901;BMP280;65859;43.020;25.096;2024-01-16T09:32:01;98966.81;;;8.67
76901;BMP280;65859;43.020;25.096;2024-01-16T09:34:46;98954.91;;;7.61
76901;BMP280;65859;43.020;25.096;2024-01-16T09:37:30;98968.00;;;7.83
76901;BMP280;65859;43.020;25.096;2024-01-16T09:40:15;98965.31;;;8.40
76901;BMP280;65859;43.020;25.096;2024-01-16T09:43:00;98968.69;;;7.40
76901;BMP280;65859;43.020;25.096;2024-01-16T09:45:46;98963.66;;;7.30
76901;BMP280;65859;43.020;25.096;2024-01-16T09:48:32;98966.09;;;8.15
76901;BMP280;65859;43.020;25.096;2024-01-16T09:51:17;98965.31;;;7.57
76901;BMP280;65859;43.020;25.096;2024-01-16T09:54:03;98962.03;;;7.51
76901;BMP280;65859;43.020;25.096;2024-01-16T09:56:55;98965.16;;;7.53
76901;BMP280;65859;43.020;25.096;2024-01-16T09:59:43;98964.41;;;7.62
76901;BMP280;65859;43.020;25.096;2024-01-16T10:02:28;98965.91;;;7.45
76901;BMP280;65859;43.020;25.096;2024-01-16T10:05:13;98988.03;;;7.04
76901;BMP280;65859;43.020;25.096;2024-01-16T10:07:59;98982.56;;;7.01
76901;BMP280;65859;43.020;25.096;2024-01-16T10:10:43;98983.75;;;6.86
76901;BMP280;65859;43.020;25.096;2024-01-16T10:13:31;98978.69;;;6.76
76901;BMP280;65859;43.020;25.096;2024-01-16T10:16:16;98970.19;;;6.57
76901;BMP280;65859;43.020;25.096;2024-01-16T10:19:05;98973.16;;;6.41
76901;BMP280;65859;43.020;25.096;2024-01-16T10:21:51;98979.31;;;6.37
76901;BMP280;65859;43.020;25.096;2024-01-16T10:24:36;98980.72;;;6.57
76901;BMP280;65859;43.020;25.096;2024-01-16T10:27:22;98982.34;;;6.44
76901;BMP280;65859;43.020;25.096;2024-01-16T10:30:08;98979.53;;;6.26
76901;BMP280;65859;43.020;25.096;2024-01-16T10:32:52;98950.81;;;6.03
76901;BMP280;65859;43.020;25.096;2024-01-16T10:35:37;98987.66;;;6.30
76901;BMP280;65859;43.020;25.096;2024-01-16T10:38:22;98995.00;;;6.56
76901;BMP280;65859;43.020;25.096;2024-01-16T10:41:11;98980.72;;;6.57
76901;BMP280;65859;43.020;25.096;2024-01-16T10:44:06;98987.94;;;6.87
76901;BMP280;65859;43.020;25.096;2024-01-16T10:46:51;98989.72;;;6.78
76901;BMP280;65859;43.020;25.096;2024-01-16T10:49:37;98988.59;;;6.93
76901;BMP280;65859;43.020;25.096;2024-01-16T10:52:26;98995.19;;;7.04
76901;BMP280;65859;43.020;25.096;2024-01-16T10:55:17;98991.03;;;6.89
76901;BMP280;65859;43.020;25.096;2024-01-16T10:58:06;98999.34;;;6.96
76901;BMP280;65859;43.020;25.096;2024-01-16T11:00:56;99001.47;;;6.94
76901;BMP280;65859;43.020;25.096;2024-01-16T11:03:47;99003.28;;;6.85
76901;BMP280;65859;43.020;25.096;2024-01-16T11:06:37;98988.66;;;6.79
76901;BMP280;65859;43.020;25.096;2024-01-16T11:09:23;98998.31;;;7.37
76901;BMP280;65859;43.020;25.096;2024-01-16T11:12:09;99009.41;;;9.85
76901;BMP280;65859;43.020;25.096;2024-01-16T11:14:59;98995.59;;;7.59
76901;BMP280;65859;43.020;25.096;2024-01-16T11:17:45;99000.16;;;7.05
76901;BMP280;65859;43.020;25.096;2024-01-16T11:20:31;98995.38;;;6.85
76901;BMP280;65859;43.020;25.096;2024-01-16T11:23:16;99007.41;;;6.77
76901;BMP280;65859;43.020;25.096;2024-01-16T11:26:25;99004.34;;;6.84
76901;BMP280;65859;43.020;25.096;2024-01-16T11:32:35;99011.66;;;6.87
76901;BMP280;65859;43.020;25.096;2024-01-16T11:35:33;99014.19;;;6.70
76901;BMP280;65859;43.020;25.096;2024-01-16T11:38:27;99009.38;;;6.72
76901;BMP280;65859;43.020;25.096;2024-01-16T11:44:40;99004.59;;;6.96
76901;BMP280;65859;43.020;25.096;2024-01-16T11:47:27;99014.16;;;7.15
76901;BMP280;65859;43.020;25.096;2024-01-16T11:50:13;99013.91;;;7.47
76901;BMP280;65859;43.020;25.096;2024-01-16T11:53:30;99031.66;;;9.55
76901;BMP280;65859;43.020;25.096;2024-01-16T12:01:58;99029.13;;;7.90
76901;BMP280;65859;43.020;25.096;2024-01-16T12:04:52;99030.59;;;8.91
76901;BMP280;65859;43.020;25.096;2024-01-16T12:07:45;99039.50;;;7.87
76901;BMP280;65859;43.020;25.096;2024-01-16T12:10:30;99043.25;;;7.94
76901;BMP280;65859;43.020;25.096;2024-01-16T12:13:16;99056.75;;;8.50
76901;BMP280;65859;43.020;25.096;2024-01-16T12:16:02;99044.69;;;7.61
76901;BMP280;65859;43.020;25.096;2024-01-16T12:18:48;99067.47;;;7.48
76901;BMP280;65859;43.020;25.096;2024-01-16T12:21:41;99053.97;;;8.46
76901;BMP280;65859;43.020;25.096;2024-01-16T12:24:27;99079.63;;;8.54
76901;BMP280;65859;43.020;25.096;2024-01-16T12:27:12;99056.38;;;9.38
76901;BMP280;65859;43.020;25.096;2024-01-16T12:30:10;99141.13;;;12.62
76901;BMP280;65859;43.020;25.096;2024-01-16T12:33:10;99095.97;;;13.09
76901;BMP280;65859;43.020;25.096;2024-01-16T12:36:04;99076.03;;;8.68
76901;BMP280;65859;43.020;25.096;2024-01-16T12:38:54;99091.75;;;7.14
76901;BMP280;65859;43.020;25.096;2024-01-16T12:41:43;99091.38;;;6.84
76901;BMP280;65859;43.020;25.096;2024-01-16T12:44:29;99087.19;;;6.69
76901;BMP280;65859;43.020;25.096;2024-01-16T12:47:18;99098.00;;;6.95
76901;BMP280;65859;43.020;25.096;2024-01-16T12:50:04;99090.75;;;7.23
76901;BMP280;65859;43.020;25.096;2024-01-16T12:52:50;99077.09;;;7.21
76901;BMP280;65859;43.020;25.096;2024-01-16T12:55:44;99097.16;;;7.09
76901;BMP280;65859;43.020;25.096;2024-01-16T12:58:34;99108.38;;;6.78
76901;BMP280;65859;43.020;25.096;2024-01-16T13:01:29;99117.84;;;6.79
76901;BMP280;65859;43.020;25.096;2024-01-16T13:04:17;99122.56;;;6.68
76901;BMP280;65859;43.020;25.096;2024-01-16T13:07:05;99137.28;;;6.69
76901;BMP280;65859;43.020;25.096;2024-01-16T13:09:50;99128.78;;;6.72
76901;BMP280;65859;43.020;25.096;2024-01-16T13:12:35;99135.94;;;6.31
76901;BMP280;65859;43.020;25.096;2024-01-16T13:15:21;99139.41;;;5.98
76901;BMP280;65859;43.020;25.096;2024-01-16T13:18:05;99129.88;;;6.03
76901;BMP280;65859;43.020;25.096;2024-01-16T13:20:52;99128.63;;;5.81
76901;BMP280;65859;43.020;25.096;2024-01-16T13:23:38;99130.69;;;5.70
76901;BMP280;65859;43.020;25.096;2024-01-16T13:26:22;99133.22;;;5.75
76901;BMP280;65859;43.020;25.096;2024-01-16T13:29:07;99126.81;;;5.63
76901;BMP280;65859;43.020;25.096;2024-01-16T13:31:53;99131.28;;;5.48
76901;BMP280;65859;43.020;25.096;2024-01-16T13:34:41;99135.84;;;5.43
76901;BMP280;65859;43.020;25.096;2024-01-16T13:37:30;99112.69;;;5.45
76901;BMP280;65859;43.020;25.096;2024-01-16T13:40:15;99136.69;;;5.38
76901;BMP280;65859;43.020;25.096;2024-01-16T13:43:04;99143.66;;;5.29
76901;BMP280;65859;43.020;25.096;2024-01-16T13:45:49;99150.91;;;5.56
76901;BMP280;65859;43.020;25.096;2024-01-16T13:48:37;99166.53;;;5.47
76901;BMP280;65859;43.020;25.096;2024-01-16T13:51:22;99171.16;;;5.37
76901;BMP280;65859;43.020;25.096;2024-01-16T13:54:07;99177.16;;;5.42
76901;BMP280;65859;43.020;25.096;2024-01-16T13:56:52;99184.50;;;5.45
76901;BMP280;65859;43.020;25.096;2024-01-16T13:59:37;99181.34;;;5.43
76901;BMP280;65859;43.020;25.096;2024-01-16T14:02:23;99188.88;;;5.31
76901;BMP280;65859;43.020;25.096;2024-01-16T14:05:17;99196.13;;;5.39
76901;BMP280;65859;43.020;25.096;2024-01-16T14:08:02;99195.44;;;5.53
76901;BMP280;65859;43.020;25.096;2024-01-16T14:10:47;99197.63;;;5.27
76901;BMP280;65859;43.020;25.096;2024-01-16T14:13:32;99195.13;;;5.16
76901;BMP280;65859;43.020;25.096;2024-01-16T14:16:17;99206.88;;;5.24
76901;BMP280;65859;43.020;25.096;2024-01-16T14:19:02;99207.16;;;5.22
76901;BMP280;65859;43.020;25.096;2024-01-16T14:21:46;99210.06;;;5.21
76901;BMP280;65859;43.020;25.096;2024-01-16T14:24:32;99217.44;;;5.19
76901;BMP280;65859;43.020;25.096;2024-01-16T14:27:17;99206.72;;;5.34
76901;BMP280;65859;43.020;25.096;2024-01-16T14:30:02;99210.28;;;5.24
76901;BMP280;65859;43.020;25.096;2024-01-16T14:32:47;99206.94;;;5.19
76901;BMP280;65859;43.020;25.096;2024-01-16T14:35:33;99209.28;;;5.20
76901;BMP280;65859;43.020;25.096;2024-01-16T14:38:17;99209.72;;;5.04
76901;BMP280;65859;43.020;25.096;2024-01-16T14:41:02;99207.38;;;5.02
76901;BMP280;65859;43.020;25.096;2024-01-16T14:43:51;99212.13;;;5.00
76901;BMP280;65859;43.020;25.096;2024-01-16T14:46:36;99197.41;;;4.99
76901;BMP280;65859;43.020;25.096;2024-01-16T14:49:21;99207.72;;;4.95
76901;BMP280;65859;43.020;25.096;2024-01-16T14:52:06;99212.72;;;4.97
76901;BMP280;65859;43.020;25.096;2024-01-16T14:54:52;99212.00;;;4.91
76901;BMP280;65859;43.020;25.096;2024-01-16T14:57:37;99217.34;;;4.81
76901;BMP280;65859;43.020;25.096;2024-01-16T15:00:26;99214.03;;;4.76
76901;BMP280;65859;43.020;25.096;2024-01-16T15:03:11;99221.31;;;4.79
76901;BMP280;65859;43.020;25.096;2024-01-16T15:05:58;99228.47;;;4.73
76901;BMP280;65859;43.020;25.096;2024-01-16T15:08:43;99233.59;;;4.59
76901;BMP280;65859;43.020;25.096;2024-01-16T15:11:28;99239.38;;;4.61
76901;BMP280;65859;43.020;25.096;2024-01-16T15:14:14;99240.84;;;4.43
76901;BMP280;65859;43.020;25.096;2024-01-16T15:17:02;99252.56;;;4.56
76901;BMP280;65859;43.020;25.096;2024-01-16T15:19:46;99246.84;;;4.49
76901;BMP280;65859;43.020;25.096;2024-01-16T15:22:31;99256.69;;;4.38
76901;BMP280;65859;43.020;25.096;2024-01-16T15:25:16;99261.94;;;4.38
76901;BMP280;65859;43.020;25.096;2024-01-16T15:28:05;99266.41;;;4.33
76901;BMP280;65859;43.020;25.096;2024-01-16T15:30:50;99270.13;;;4.27
76901;BMP280;65859;43.020;25.096;2024-01-16T15:33:35;99281.53;;;4.17
76901;BMP280;65859;43.020;25.096;2024-01-16T15:36:22;99290.88;;;4.23
76901;BMP280;65859;43.020;25.096;2024-01-16T15:39:07;99288.88;;;4.15
76901;BMP280;65859;43.020;25.096;2024-01-16T15:41:52;99292.47;;;4.24
76901;BMP280;65859;43.020;25.096;2024-01-16T15:44:37;99302.19;;;4.24
76901;BMP280;65859;43.020;25.096;2024-01-16T15:47:23;99296.75;;;4.15
76901;BMP280;65859;43.020;25.096;2024-01-16T15:50:08;99297.81;;;4.14
76901;BMP280;65859;43.020;25.096;2024-01-16T15:52:54;99304.41;;;4.06
76901;BMP280;65859;43.020;25.096;2024-01-16T15:55:40;99304.13;;;4.08
76901;BMP280;65859;43.020;25.096;2024-01-16T15:58:24;99303.09;;;4.04
76901;BMP280;65859;43.020;25.096;2024-01-16T16:01:09;99309.44;;;3.97
76901;BMP280;65859;43.020;25.096;2024-01-16T16:03:53;99317.63;;;3.86
76901;BMP280;65859;43.020;25.096;2024-01-16T16:06:41;99318.91;;;3.93
76901;BMP280;65859;43.020;25.096;2024-01-16T16:09:26;99324.16;;;3.93